Time;durP1;ratioP1;P1;durP2;ratioP2;P2;SDS_P1;SDS_P2;PMS_P1;PMS_P2;Temp;Humidity;BMP_temperature;BMP_pressure;BME280_temperature;BME280_humidity;BME280_pressure;Samples;Min_cycle;Max_cycle;Signal;HPM_P1;HPM_P2
2022/02/24 00:00:57;;;;;;;4.03;2.97;;;;;;;7.25;100.00;100527.19;5009621;28;20029;-65
2022/02/24 00:03:23;;;;;;;4.70;2.90;;;;;;;7.09;100.00;100516.28;5009924;28;20054;-64
2022/02/24 00:05:49;;;;;;;5.13;3.38;;;;;;;7.34;100.00;100548.19;5011208;28;20034;-64
2022/02/24 00:08:15;;;;;;;4.55;3.83;;;;;;;7.33;100.00;100571.78;5011545;28;20034;-64
2022/02/24 00:10:40;;;;;;;4.53;3.30;;;;;;;7.45;100.00;100603.75;5009828;28;20030;-64
2022/02/24 00:13:05;;;;;;;4.57;3.70;;;;;;;7.34;100.00;100580.22;5011214;28;20496;-64
2022/02/24 00:15:31;;;;;;;4.65;4.05;;;;;;;7.47;100.00;100607.13;5011068;28;20096;-64
2022/02/24 00:17:57;;;;;;;4.60;3.88;;;;;;;7.41;100.00;100599.56;5011176;28;20068;-64
2022/02/24 00:20:22;;;;;;;4.88;3.80;;;;;;;7.15;100.00;100558.41;5011018;28;20041;-64
2022/02/24 00:22:48;;;;;;;4.88;3.75;;;;;;;7.52;100.00;100613.00;5011018;28;20038;-64
2022/02/24 00:25:13;;;;;;;5.22;3.92;;;;;;;7.22;100.00;100571.03;5010714;28;20389;-64
2022/02/24 00:27:39;;;;;;;4.45;3.53;;;;;;;7.21;100.00;100576.91;5011007;28;20030;-64
2022/02/24 00:30:05;;;;;;;3.95;3.35;;;;;;;7.53;100.00;100613.00;5010620;28;20033;-64
2022/02/24 00:32:31;;;;;;;5.32;4.57;;;;;;;7.51;100.00;100607.09;5010839;28;20031;-64
2022/02/24 00:34:57;;;;;;;5.53;3.95;;;;;;;6.91;100.00;100536.63;5010922;28;20060;-65
2022/02/24 00:37:22;;;;;;;3.75;3.33;;;;;;;7.44;100.00;100602.94;5010986;28;20121;-64
2022/02/24 00:39:48;;;;;;;3.92;3.17;;;;;;;7.49;100.00;100600.38;5010663;28;20109;-64
2022/02/24 00:42:13;;;;;;;3.80;3.20;;;;;;;7.22;100.00;100577.75;5010860;28;20026;-64
2022/02/24 00:44:39;;;;;;;4.38;3.30;;;;;;;7.14;100.00;100551.66;5009109;28;20207;-64
2022/02/24 00:47:05;;;;;;;3.75;3.30;;;;;;;7.29;100.00;100569.31;5010402;28;20034;-63
2022/02/24 00:49:30;;;;;;;3.83;3.42;;;;;;;7.43;100.00;100603.78;5011038;28;20114;-64
2022/02/24 00:51:56;;;;;;;3.63;3.08;;;;;;;7.38;100.00;100566.72;5010926;28;20040;-63
2022/02/24 00:54:21;;;;;;;3.50;3.20;;;;;;;7.22;100.00;100555.00;5010431;28;20084;-62
2022/02/24 00:56:47;;;;;;;3.20;2.90;;;;;;;7.03;100.00;100529.00;5010532;28;20470;-62
2022/02/24 00:59:12;;;;;;;3.50;2.97;;;;;;;7.40;100.00;100570.06;5010510;28;20034;-62
2022/02/24 01:01:38;;;;;;;3.50;3.08;;;;;;;7.03;100.00;100507.91;5094584;23;20520;-63
2022/02/24 01:04:03;;;;;;;3.97;2.70;;;;;;;7.08;100.00;100513.78;4314102;28;10000685;-63
2022/02/24 01:06:29;;;;;;;3.00;2.70;;;;;;;7.15;100.00;100536.47;5011039;28;20045;-62
2022/02/24 01:08:56;;;;;;;2.80;2.55;;;;;;;7.27;100.00;100559.19;5010411;28;20030;-63
2022/02/24 01:11:21;;;;;;;3.30;2.50;;;;;;;7.35;100.00;100554.91;5010928;28;20117;-63
2022/02/24 01:13:47;;;;;;;3.20;2.72;;;;;;;7.10;100.00;100544.94;5009417;28;20172;-62
2022/02/24 01:16:12;;;;;;;2.88;2.42;;;;;;;7.23;100.00;100549.94;5009960;28;20487;-62
2022/02/24 01:18:38;;;;;;;2.40;2.20;;;;;;;7.22;100.00;100562.59;5009185;28;20495;-63
2022/02/24 01:21:03;;;;;;;2.80;2.10;;;;;;;7.14;100.00;100559.25;5010824;28;20034;-63
2022/02/24 01:23:28;;;;;;;2.60;2.40;;;;;;;7.06;100.00;100539.06;5010202;28;20034;-62
2022/02/24 01:25:54;;;;;;;2.30;1.73;;;;;;;6.51;100.00;100456.78;5010667;28;20034;-62
2022/02/24 01:28:19;;;;;;;2.30;1.80;;;;;;;6.90;100.00;100538.31;5010451;28;20516;-62
2022/02/24 01:30:45;;;;;;;2.20;1.90;;;;;;;6.61;100.00;100504.75;5010221;28;20030;-61
2022/02/24 01:33:10;;;;;;;1.60;1.50;;;;;;;6.85;100.00;100560.22;5009116;28;20467;-62
2022/02/24 01:35:36;;;;;;;3.63;1.45;;;;;;;6.89;100.00;100548.44;5010514;28;20499;-62
2022/02/24 01:38:01;;;;;;;1.75;1.10;;;;;;;6.64;100.00;100497.13;5008445;28;20232;-62
2022/02/24 01:40:27;;;;;;;1.42;1.10;;;;;;;6.76;100.00;100519.81;5009424;28;20480;-62
2022/02/24 01:42:53;;;;;;;1.70;1.40;;;;;;;6.82;100.00;100550.13;5010468;28;20061;-62
2022/02/24 01:45:18;;;;;;;1.42;1.10;;;;;;;6.91;100.00;100550.06;5009769;28;20037;-62
2022/02/24 01:47:44;;;;;;;1.17;1.00;;;;;;;6.77;100.00;100561.09;5010292;28;20143;-62
2022/02/24 01:50:11;;;;;;;2.25;1.00;;;;;;;6.76;100.00;100551.81;5009534;28;20038;-62
2022/02/24 01:52:38;;;;;;;0.80;0.80;;;;;;;6.53;100.00;100506.44;5010037;28;20036;-62
2022/02/24 01:55:04;;;;;;;1.40;1.08;;;;;;;6.73;100.00;100554.38;5010182;28;20034;-62
2022/02/24 01:57:30;;;;;;;0.93;0.80;;;;;;;6.37;100.00;100509.84;5010043;28;20038;-62
2022/02/24 01:59:56;;;;;;;1.23;0.80;;;;;;;6.56;100.00;100549.38;5009798;28;20030;-63
2022/02/24 02:02:21;;;;;;;0.70;0.70;;;;;;;6.60;100.00;100552.72;5008380;28;20787;-62
2022/02/24 02:04:47;;;;;;;1.00;0.80;;;;;;;6.35;100.00;100510.69;5029244;28;20048;-63
2022/02/24 02:07:12;;;;;;;1.75;1.05;;;;;;;6.42;100.00;100503.09;5029208;28;20040;-63
2022/02/24 02:09:39;;;;;;;5.25;2.92;;;;;;;6.51;100.00;100530.03;5029207;28;20033;-64
2022/02/24 02:12:05;;;;;;;6.03;3.10;;;;;;;6.66;100.00;100558.59;5015499;28;20042;-64
2022/02/24 02:14:31;;;;;;;2.80;1.70;;;;;;;6.67;100.00;100574.59;5009452;28;20041;-63
2022/02/24 02:16:58;;;;;;;1.92;1.00;;;;;;;6.34;100.00;100524.19;5009677;28;20038;-64
2022/02/24 02:19:24;;;;;;;1.70;1.00;;;;;;;6.43;100.00;100524.16;5008167;28;20037;-64
2022/02/24 02:21:50;;;;;;;1.02;0.82;;;;;;;6.29;100.00;100486.31;5009237;28;20044;-64
2022/02/24 02:24:15;;;;;;;1.08;0.80;;;;;;;6.37;100.00;100519.97;5008477;28;20415;-63
2022/02/24 02:26:41;;;;;;;0.85;0.70;;;;;;;6.67;100.00;100550.19;5009045;28;20486;-64
2022/02/24 02:29:10;;;;;;;0.77;0.60;;;;;;;6.43;100.00;100541.81;5009300;28;20058;-64
2022/02/24 02:31:36;;;;;;;0.60;0.60;;;;;;;6.72;100.00;100562.78;4999282;28;20039;-63
2022/02/24 02:34:03;;;;;;;0.80;0.50;;;;;;;6.37;100.00;100514.06;4989798;28;20113;-63
2022/02/24 02:36:29;;;;;;;0.63;0.43;;;;;;;6.23;100.00;100505.66;4989581;28;20041;-64
2022/02/24 02:38:55;;;;;;;0.50;0.50;;;;;;;6.55;100.00;100565.38;4989585;28;20022;-64
2022/02/24 02:41:21;;;;;;;0.60;0.50;;;;;;;6.51;100.00;100563.69;4989827;28;20089;-63
2022/02/24 02:43:47;;;;;;;0.60;0.50;;;;;;;6.58;100.00;100567.03;4989548;28;20424;-63
2022/02/24 02:46:12;;;;;;;0.50;0.40;;;;;;;6.51;100.00;100566.22;5004176;28;20067;-63
2022/02/24 02:48:38;;;;;;;0.50;0.40;;;;;;;6.40;100.00;100545.19;4989447;28;20030;-63
2022/02/24 02:51:03;;;;;;;0.50;0.50;;;;;;;6.47;100.00;100556.13;4988787;28;20486;-63
2022/02/24 02:53:28;;;;;;;0.85;0.60;;;;;;;6.02;100.00;100464.50;4989430;28;20034;-63
2022/02/24 02:55:54;;;;;;;0.88;0.68;;;;;;;6.37;100.00;100514.91;4989591;28;20058;-63
2022/02/24 02:58:19;;;;;;;0.52;0.50;;;;;;;6.74;100.00;100561.94;4989609;28;20027;-63
2022/02/24 03:00:45;;;;;;;1.10;0.57;;;;;;;6.65;100.00;100561.97;4990827;28;20046;-63
2022/02/24 03:03:10;;;;;;;0.60;0.60;;;;;;;6.21;100.00;100514.94;5015696;28;20097;-63
2022/02/24 03:05:36;;;;;;;0.93;0.50;;;;;;;6.69;100.00;100576.28;5028144;28;20033;-63
2022/02/24 03:08:01;;;;;;;0.63;0.55;;;;;;;6.21;100.00;100489.69;5027156;28;20099;-63
2022/02/24 03:10:27;;;;;;;1.30;0.88;;;;;;;6.56;100.00;100566.19;5028923;28;20483;-63
2022/02/24 03:12:53;;;;;;;0.70;0.70;;;;;;;6.43;100.00;100570.44;5028580;28;20032;-63
2022/02/24 03:15:19;;;;;;;0.77;0.65;;;;;;;6.68;100.00;100578.78;5028076;28;20109;-63
2022/02/24 03:17:47;;;;;;;1.52;0.70;;;;;;;6.36;100.00;100520.78;5026704;28;20417;-63
2022/02/24 03:20:13;;;;;;;1.10;0.90;;;;;;;6.43;100.00;100570.44;5027828;28;20087;-63
2022/02/24 03:22:38;;;;;;;0.85;0.68;;;;;;;6.37;100.00;100564.56;5028484;28;20490;-63
2022/02/24 03:25:05;;;;;;;1.05;0.73;;;;;;;6.02;100.00;100512.44;5027947;28;20040;-63
2022/02/24 03:27:30;;;;;;;0.77;0.77;;;;;;;6.15;100.00;100535.97;5027594;28;20430;-63
2022/02/24 03:29:56;;;;;;;0.77;0.65;;;;;;;6.13;100.00;100527.56;5028208;28;20041;-63
2022/02/24 03:32:22;;;;;;;1.17;0.80;;;;;;;6.41;100.00;100567.09;5028013;28;20033;-62
2022/02/24 03:34:48;;;;;;;1.05;0.90;;;;;;;6.29;100.00;100567.09;5027826;28;20036;-63
2022/02/24 03:37:14;;;;;;;1.98;0.85;;;;;;;6.19;100.00;100546.91;5028073;28;20026;-62
2022/02/24 03:39:42;;;;;;;1.08;0.90;;;;;;;5.94;100.00;100518.34;5014942;28;20034;-62
2022/02/24 03:42:08;;;;;;;0.90;0.70;;;;;;;5.91;100.00;100523.38;5008094;28;20041;-62
2022/02/24 03:44:34;;;;;;;0.68;0.50;;;;;;;6.01;100.00;100532.63;5006563;28;20052;-63
2022/02/24 03:46:59;;;;;;;1.00;0.80;;;;;;;6.16;100.00;100567.13;5008495;28;20484;-63
2022/02/24 03:49:24;;;;;;;1.23;0.93;;;;;;;6.12;100.00;100554.47;5007863;28;20037;-63
2022/02/24 03:51:51;;;;;;;2.13;0.98;;;;;;;6.41;100.00;100577.19;5007999;28;20408;-63
2022/02/24 03:54:17;;;;;;;1.75;1.05;;;;;;;5.98;100.00;100525.88;5008142;28;20033;-63
2022/02/24 03:56:42;;;;;;;2.90;2.00;;;;;;;6.55;100.00;100587.25;5008187;28;20052;-63
2022/02/24 03:59:07;;;;;;;3.13;2.33;;;;;;;5.93;100.00;100525.06;5007982;28;20034;-63
2022/02/24 04:01:33;;;;;;;9.43;4.43;;;;;;;6.29;100.00;100567.09;5008003;28;20033;-63
2022/02/24 04:03:58;;;;;;;1.67;1.30;;;;;;;6.06;100.00;100530.97;5020854;28;20837;-63
2022/02/24 04:06:24;;;;;;;0.88;0.80;;;;;;;6.46;100.00;100565.38;5027565;28;20047;-63
2022/02/24 04:08:50;;;;;;;1.23;1.00;;;;;;;6.13;100.00;100527.56;5027343;28;20030;-63
2022/02/24 04:11:15;;;;;;;1.00;0.90;;;;;;;6.41;100.00;100572.13;5026263;28;20037;-64
2022/02/24 04:13:40;;;;;;;3.22;1.65;;;;;;;6.61;100.00;100592.28;5027574;28;20048;-64
2022/02/24 04:16:06;;;;;;;2.63;2.08;;;;;;;6.54;100.00;100542.63;5026791;28;20034;-65
2022/02/24 04:18:31;;;;;;;2.03;1.48;;;;;;;6.28;100.00;100526.72;5008493;28;20029;-65
2022/02/24 04:20:57;;;;;;;2.00;1.60;;;;;;;6.25;100.00;100539.31;5007664;28;20041;-66
2022/02/24 04:23:22;;;;;;;1.48;1.20;;;;;;;6.54;100.00;100552.72;5006371;28;20547;-67
2022/02/24 04:25:48;;;;;;;1.90;1.20;;;;;;;6.28;100.00;100594.88;5006157;28;20029;-65
2022/02/24 04:28:13;;;;;;;1.73;1.30;;;;;;;6.46;100.00;100570.44;5007054;28;20040;-64
2022/02/24 04:30:39;;;;;;;1.25;0.95;;;;;;;6.49;100.00;100608.31;5007308;28;20456;-65
2022/02/24 04:33:04;;;;;;;1.10;0.90;;;;;;;6.56;100.00;100592.28;5007554;28;20022;-65
2022/02/24 04:35:30;;;;;;;1.55;1.20;;;;;;;5.97;100.00;100544.41;5006329;28;20032;-65
2022/02/24 04:37:55;;;;;;;4.22;1.95;;;;;;;6.52;100.00;100612.50;5007385;28;20036;-65
2022/02/24 04:40:21;;;;;;;4.28;2.63;;;;;;;6.50;100.00;100604.09;5004534;28;20159;-64
2022/02/24 04:42:46;;;;;;;6.38;3.03;;;;;;;6.25;100.00;100565.41;5007138;28;20022;-64
2022/02/24 04:45:12;;;;;;;4.63;2.17;;;;;;;6.40;100.00;100579.72;5006574;28;20092;-64
2022/02/24 04:47:37;;;;;;;2.17;1.40;;;;;;;6.01;100.00;100560.38;5005632;28;20480;-65
2022/02/24 04:50:05;;;;;;;2.50;1.50;;;;;;;6.51;100.00;100562.84;5006939;28;20577;-64
2022/02/24 04:52:32;;;;;;;2.35;1.55;;;;;;;6.53;100.00;100625.16;5005140;28;20045;-63
2022/02/24 04:54:58;;;;;;;1.92;1.00;;;;;;;6.27;100.00;100548.59;5007139;28;20030;-65
2022/02/24 04:57:23;;;;;;;2.53;0.98;;;;;;;6.66;100.00;100629.31;5007224;28;20037;-64
2022/02/24 04:59:49;;;;;;;1.05;0.70;;;;;;;6.90;100.00;100641.91;5006827;28;20030;-63
2022/02/24 05:02:14;;;;;;;2.42;1.63;;;;;;;6.76;100.00;100614.97;5004375;28;20058;-63
2022/02/24 05:04:40;;;;;;;2.42;1.40;;;;;;;6.47;100.00;100592.31;5009826;28;20030;-64
2022/02/24 05:07:05;;;;;;;1.85;1.30;;;;;;;6.57;100.00;100590.63;5010323;28;20030;-64
2022/02/24 05:09:30;;;;;;;2.47;1.38;;;;;;;6.91;100.00;100660.44;5010625;28;20412;-64
2022/02/24 05:11:56;;;;;;;1.25;0.90;;;;;;;6.64;100.00;100663.00;5010333;28;20030;-63
2022/02/24 05:14:21;;;;;;;3.22;0.80;;;;;;;6.46;100.00;100658.81;5010061;28;20057;-63
2022/02/24 05:16:47;;;;;;;2.20;1.23;;;;;;;6.43;100.00;100612.53;5010148;28;20030;-64
2022/02/24 05:19:12;;;;;;;1.38;0.95;;;;;;;6.34;100.00;100605.78;5010350;28;20029;-63
2022/02/24 05:21:38;;;;;;;1.80;1.20;;;;;;;6.68;100.00;100647.00;5010345;28;20678;-63
2022/02/24 05:24:04;;;;;;;1.83;0.98;;;;;;;6.69;100.00;100669.75;5010339;28;20030;-63
2022/02/24 05:26:30;;;;;;;1.25;0.82;;;;;;;6.60;100.00;100636.91;5010131;28;20030;-62
2022/02/24 05:28:55;;;;;;;1.35;1.00;;;;;;;6.42;100.00;100641.16;5009895;28;20510;-63
2022/02/24 05:31:21;;;;;;;2.70;1.40;;;;;;;6.70;100.00;100690.78;5008676;28;20034;-63
2022/02/24 05:33:46;;;;;;;2.65;1.30;;;;;;;6.38;100.00;100649.56;5010243;28;20030;-63
2022/02/24 05:36:12;;;;;;;2.38;1.75;;;;;;;6.41;100.00;100636.94;5010134;28;20037;-63
2022/02/24 05:38:37;;;;;;;1.98;1.40;;;;;;;6.63;100.00;100707.66;5010500;28;20032;-63
2022/02/24 05:41:03;;;;;;;1.10;0.80;;;;;;;6.70;100.00;100708.47;5009836;28;20026;-63
2022/02/24 05:43:29;;;;;;;1.63;1.10;;;;;;;6.71;100.00;100707.66;5010156;28;20040;-64
2022/02/24 05:45:56;;;;;;;3.40;1.40;;;;;;;6.78;100.00;100720.25;5009044;28;20104;-65
2022/02/24 05:48:21;;;;;;;1.63;1.05;;;;;;;6.72;100.00;100712.69;5012174;28;20042;-64
2022/02/24 05:50:47;;;;;;;1.30;1.00;;;;;;;6.78;100.00;100732.06;5013455;28;20080;-63
2022/02/24 05:53:12;;;;;;;1.23;0.90;;;;;;;6.72;100.00;100721.94;5013120;28;20034;-63
2022/02/24 05:55:38;;;;;;;1.45;1.13;;;;;;;6.54;100.00;100699.22;5012728;28;20033;-63
2022/02/24 05:58:03;;;;;;;1.73;1.38;;;;;;;6.78;100.00;100729.53;5012273;28;20029;-62
2022/02/24 06:00:29;;;;;;;1.88;1.30;;;;;;;6.82;100.00;100721.09;5009740;28;20033;-63
2022/02/24 06:02:55;;;;;;;2.50;1.35;;;;;;;6.75;100.00;100739.66;5012424;28;20046;-63
2022/02/24 06:05:20;;;;;;;3.08;1.65;;;;;;;6.70;100.00;100731.22;5012943;28;20037;-63
2022/02/24 06:07:47;;;;;;;3.15;1.98;;;;;;;6.86;100.00;100732.88;5013251;28;20029;-63
2022/02/24 06:10:13;;;;;;;4.88;2.90;;;;;;;6.30;100.00;100671.47;5013391;28;20033;-64
2022/02/24 06:12:39;;;;;;;6.35;3.92;;;;;;;6.89;100.00;100746.34;5013499;28;20048;-63
2022/02/24 06:15:06;;;;;;;4.65;3.30;;;;;;;6.99;100.00;100760.66;5013033;28;20069;-63
2022/02/24 06:17:32;;;;;;;5.65;3.47;;;;;;;6.83;100.00;100759.00;5013203;28;20041;-63
2022/02/24 06:19:57;;;;;;;4.38;2.60;;;;;;;6.59;100.00;100705.13;5013333;28;20030;-64
2022/02/24 06:22:24;;;;;;;6.68;3.80;;;;;;;7.07;100.00;100773.31;5013349;28;20029;-63
2022/02/24 06:24:51;;;;;;;7.22;4.47;;;;;;;6.98;100.00;100768.25;5012972;28;20022;-64
2022/02/24 06:27:18;;;;;;;5.97;3.38;;;;;;;7.17;100.00;100774.97;5013143;28;20026;-64
2022/02/24 06:29:44;;;;;;;4.35;2.80;;;;;;;6.72;100.00;100717.75;5012898;28;20026;-64
2022/02/24 06:32:10;;;;;;;4.50;2.67;;;;;;;6.78;100.00;100740.47;5013428;28;20396;-64
2022/02/24 06:34:36;;;;;;;3.67;3.03;;;;;;;7.23;100.00;100769.91;5012864;28;20080;-63
2022/02/24 06:37:02;;;;;;;9.35;5.10;;;;;;;6.98;100.00;100778.38;5013032;28;20509;-64
2022/02/24 06:39:27;;;;;;;6.68;4.20;;;;;;;7.18;100.00;100798.56;5013034;28;20038;-64
2022/02/24 06:41:53;;;;;;;7.10;4.68;;;;;;;6.80;100.00;100783.44;5013126;28;20046;-63
2022/02/24 06:44:18;;;;;;;5.53;4.25;;;;;;;6.47;100.00;100715.22;5012491;28;20407;-64
2022/02/24 06:46:44;;;;;;;5.97;4.80;;;;;;;7.16;100.00;100805.31;5012811;28;20037;-65
2022/02/24 06:49:10;;;;;;;5.80;4.60;;;;;;;6.67;100.00;100748.91;5012870;28;20057;-64
2022/02/24 06:51:36;;;;;;;7.38;5.35;;;;;;;7.20;100.00;100804.47;5012547;28;20092;-64
2022/02/24 06:54:02;;;;;;;6.93;5.38;;;;;;;7.52;100.00;100792.63;5012603;28;20088;-64
2022/02/24 06:56:27;;;;;;;6.80;5.38;;;;;;;7.53;100.00;100795.13;5012525;28;20030;-64
2022/02/24 06:58:53;;;;;;;10.02;6.28;;;;;;;7.41;100.00;100801.91;4998249;28;20026;-64
2022/02/24 07:01:18;;;;;;;9.20;6.00;;;;;;;7.64;100.00;100800.19;4991941;28;20031;-63
2022/02/24 07:03:44;;;;;;;8.77;5.45;;;;;;;7.06;100.00;100796.91;4992423;28;20054;-63
2022/02/24 07:06:10;;;;;;;9.73;6.90;;;;;;;7.09;100.00;100812.06;4992790;28;20035;-63
2022/02/24 07:08:36;;;;;;;10.48;6.70;;;;;;;7.19;100.00;100803.63;4991476;28;20033;-64
2022/02/24 07:11:02;;;;;;;8.05;6.45;;;;;;;7.07;100.00;100773.31;4992710;28;20116;-63
2022/02/24 07:13:28;;;;;;;9.63;6.63;;;;;;;6.92;100.00;100791.84;4992285;28;20061;-63
2022/02/24 07:15:53;;;;;;;8.55;6.68;;;;;;;6.67;100.00;100754.81;4992624;28;20599;-63
2022/02/24 07:18:19;;;;;;;8.38;6.90;;;;;;;6.70;100.00;100776.69;4992815;28;20561;-63
2022/02/24 07:20:44;;;;;;;7.43;6.60;;;;;;;6.98;100.00;100819.66;4992775;28;20039;-63
2022/02/24 07:23:10;;;;;;;8.70;6.90;;;;;;;7.18;100.00;100831.44;4991299;28;20118;-62
2022/02/24 07:25:35;;;;;;;11.05;7.78;;;;;;;6.91;100.00;100810.38;4990965;28;20040;-63
2022/02/24 07:28:00;;;;;;;9.27;7.65;;;;;;;7.11;100.00;100834.84;4992295;28;20026;-64
2022/02/24 07:30:26;;;;;;;9.07;7.30;;;;;;;6.92;100.00;100814.59;4992229;28;20038;-62
2022/02/24 07:32:51;;;;;;;9.52;7.35;;;;;;;7.10;100.00;100843.25;4990867;28;20412;-64
2022/02/24 07:35:17;;;;;;;10.68;7.28;;;;;;;6.97;100.00;100843.25;4992263;28;20412;-62
2022/02/24 07:37:42;;;;;;;12.02;8.13;;;;;;;6.38;100.00;100758.97;4990981;28;20037;-62
2022/02/24 07:40:09;;;;;;;8.48;7.45;;;;;;;6.70;100.00;100807.00;4991891;28;20031;-62
2022/02/24 07:42:35;;;;;;;11.50;8.68;;;;;;;6.78;100.00;100806.19;4991919;28;20034;-64
2022/02/24 07:45:01;;;;;;;9.88;8.00;;;;;;;6.37;100.00;100741.31;4991757;28;20041;-64
2022/02/24 07:47:27;;;;;;;9.60;8.05;;;;;;;6.83;100.00;100788.50;4991943;28;20488;-63
2022/02/24 07:49:52;;;;;;;11.43;8.50;;;;;;;7.16;100.00;100833.13;4992263;28;20032;-63
2022/02/24 07:52:18;;;;;;;11.90;8.40;;;;;;;7.03;100.00;100798.59;4991808;28;20059;-63
2022/02/24 07:54:43;;;;;;;10.70;8.20;;;;;;;7.40;100.00;100845.75;4991772;28;20061;-64
2022/02/24 07:57:08;;;;;;;11.50;7.72;;;;;;;7.33;100.00;100839.84;4991703;28;20424;-63
2022/02/24 07:59:34;;;;;;;11.15;7.55;;;;;;;7.25;100.00;100825.56;4991581;28;20080;-63
2022/02/24 08:01:59;;;;;;;11.30;6.65;;;;;;;7.25;100.00;100860.97;4991026;28;20076;-63
2022/02/24 08:04:25;;;;;;;9.73;6.50;;;;;;;7.38;100.00;100849.97;4991559;28;20117;-63
2022/02/24 08:06:50;;;;;;;9.93;7.03;;;;;;;7.35;100.00;100857.59;4990257;28;20488;-62
2022/02/24 08:09:16;;;;;;;9.82;6.53;;;;;;;7.49;100.00;100846.59;4991635;28;20038;-63
2022/02/24 08:11:41;;;;;;;8.95;6.78;;;;;;;7.08;100.00;100805.34;4991491;28;20080;-63
2022/02/24 08:14:07;;;;;;;7.65;6.28;;;;;;;7.38;100.00;100812.03;4991316;28;20124;-63
2022/02/24 08:16:32;;;;;;;9.10;6.25;;;;;;;8.21;100.00;100868.31;4991550;28;20537;-63
2022/02/24 08:19:00;;;;;;;7.85;6.47;;;;;;;8.20;100.00;100808.38;4991522;28;20031;-62
2022/02/24 08:21:26;;;;;;;6.50;5.70;;;;;;;8.03;100.00;100794.13;4991400;28;20485;-62
2022/02/24 08:23:52;;;;;;;12.40;7.03;;;;;;;7.96;100.00;100795.84;4991188;28;20044;-64
2022/02/24 08:26:21;;;;;;;9.20;6.10;;;;;;;8.04;100.00;100874.31;4991323;28;20121;-62
2022/02/24 08:28:48;;;;;;;7.40;5.60;;;;;;;8.15;100.00;100865.81;4991600;28;20117;-62
2022/02/24 08:31:14;;;;;;;8.65;5.68;;;;;;;7.71;100.00;100794.25;4991429;28;20439;-62
2022/02/24 08:33:39;;;;;;;7.65;5.47;;;;;;;7.87;100.00;100854.09;5006548;28;20029;-62
2022/02/24 08:36:05;;;;;;;9.15;5.70;;;;;;;7.56;100.00;100820.44;4990969;28;20058;-63
2022/02/24 08:38:30;;;;;;;7.65;5.43;;;;;;;7.44;100.00;100796.84;4991374;28;20507;-63
2022/02/24 08:40:56;;;;;;;6.22;4.90;;;;;;;7.29;100.00;100824.72;4991364;28;20030;-63
2022/02/24 08:43:22;;;;;;;7.35;5.25;;;;;;;7.00;100.00;100764.91;4990884;28;20034;-63
2022/02/24 08:45:48;;;;;;;7.43;5.70;;;;;;;7.88;100.00;100869.28;4991521;28;20026;-63
2022/02/24 08:48:14;;;;;;;8.02;6.53;;;;;;;7.52;100.00;100822.97;4991507;28;20521;-63
2022/02/24 08:50:40;;;;;;;9.82;6.28;;;;;;;7.68;100.00;100860.06;4991226;28;20081;-63
2022/02/24 08:53:06;;;;;;;7.25;5.47;;;;;;;7.28;100.00;100853.34;4991375;28;20113;-63
2022/02/24 08:55:33;;;;;;;9.68;5.78;;;;;;;7.47;100.00;100829.72;4991148;28;20038;-63
2022/02/24 08:58:01;;;;;;;7.03;5.18;;;;;;;7.64;100.00;100856.69;4990827;28;20055;-63
2022/02/24 09:00:26;;;;;;;7.47;5.47;;;;;;;7.79;100.00;100869.31;4991718;28;20095;-63
2022/02/24 09:02:51;;;;;;;8.30;5.45;;;;;;;7.46;100.00;100798.53;4991068;28;20455;-63
2022/02/24 09:05:17;;;;;;;8.35;5.45;;;;;;;7.66;100.00;100869.34;4990983;28;20038;-63
2022/02/24 09:07:42;;;;;;;9.82;6.88;;;;;;;7.10;100.00;100749.72;4989848;28;20480;-63
2022/02/24 09:10:10;;;;;;;6.88;4.60;;;;;;;7.71;100.00;100862.56;4990886;28;20541;-64
2022/02/24 09:12:35;;;;;;;6.55;4.40;;;;;;;7.56;100.00;100858.41;4989254;28;20121;-63
2022/02/24 09:15:01;;;;;;;8.52;4.65;;;;;;;7.84;100.00;100870.13;4991493;28;20037;-63
2022/02/24 09:17:28;;;;;;;5.82;4.10;;;;;;;7.25;100.00;100807.84;4991196;28;20023;-63
2022/02/24 09:19:54;;;;;;;5.32;4.07;;;;;;;7.60;100.00;100871.88;4990856;28;20030;-64
2022/02/24 09:22:19;;;;;;;6.80;4.25;;;;;;;7.62;100.00;100876.09;4991641;28;20030;-64
2022/02/24 09:24:45;;;;;;;6.72;4.50;;;;;;;7.74;100.00;100871.00;4994771;28;20500;-64
2022/02/24 09:27:10;;;;;;;7.18;4.63;;;;;;;7.78;100.00;100881.97;4994644;28;20530;-64
2022/02/24 09:29:37;;;;;;;8.05;4.18;;;;;;;7.36;100.00;100818.78;4994870;28;20037;-64
2022/02/24 09:32:03;;;;;;;6.82;4.35;;;;;;;7.56;100.00;100883.69;4994569;28;20066;-64
2022/02/24 09:34:29;;;;;;;7.80;4.32;;;;;;;7.22;100.00;100818.81;4994505;28;20045;-64
2022/02/24 09:36:54;;;;;;;7.32;4.53;;;;;;;7.16;100.00;100815.44;4994132;28;20038;-63
2022/02/24 09:39:20;;;;;;;9.02;4.65;;;;;;;7.00;100.00;100787.66;4993165;28;20088;-66
2022/02/24 09:41:46;;;;;;;7.68;4.80;;;;;;;7.52;100.00;100855.88;4994554;28;20034;-64
2022/02/24 09:44:11;;;;;;;8.25;4.60;;;;;;;7.54;100.00;100885.38;4993273;28;20125;-64
2022/02/24 09:46:39;;;;;;;8.32;5.47;;;;;;;7.13;100.00;100821.31;4993040;28;20558;-63
2022/02/24 09:49:05;;;;;;;8.10;4.80;;;;;;;7.44;100.00;100881.19;4994435;28;20117;-63
2022/02/24 09:51:31;;;;;;;7.30;4.18;;;;;;;7.18;100.00;100832.28;4994292;28;20118;-64
2022/02/24 09:53:57;;;;;;;8.65;3.92;;;;;;;7.44;100.00;100870.22;4993254;28;20034;-63
2022/02/24 09:56:29;;;;;;;6.43;4.05;;;;;;;7.46;100.00;100873.59;4993483;28;20041;-64
2022/02/24 09:58:54;;;;;;;;;;;;;;;7.57;100.00;100889.56;4993393;28;20436;-64
2022/02/24 10:01:19;;;;;;;7.50;4.47;;;;;;;7.52;100.00;100881.16;4993733;28;19910;-64
2022/02/24 10:03:48;;;;;;;8.77;4.53;;;;;;;7.50;100.00;100834.78;4992682;28;20054;-63
2022/02/24 10:06:16;;;;;;;7.53;4.80;;;;;;;7.65;100.00;100860.03;4993900;28;20065;-65
2022/02/24 10:08:43;;;;;;;9.43;5.25;;;;;;;7.88;100.00;100869.28;4993604;28;20539;-63
2022/02/24 10:11:25;;;;;;;7.72;4.65;;;;;;;7.39;100.00;100821.34;5009026;28;20115;-64
2022/02/24 10:14:08;;;;;;;9.57;4.85;;;;;;;7.86;100.00;100867.63;4993808;28;20412;-65
2022/02/24 10:16:50;;;;;;;7.60;4.68;;;;;;;7.87;100.00;100866.75;4994014;28;20038;-63
2022/02/24 10:19:17;;;;;;;7.68;4.10;;;;;;;7.83;100.00;100882.78;4993692;28;20034;-63
2022/02/24 10:21:42;;;;;;;8.07;4.15;;;;;;;7.50;100.00;100820.47;4994207;28;20070;-64
2022/02/24 10:24:23;;;;;;;10.95;4.47;;;;;;;7.55;100.00;100807.78;4993584;28;20054;-63
2022/02/24 10:26:49;;;;;;;6.88;4.10;;;;;;;7.75;100.00;100866.78;4993411;28;20065;-64
2022/02/24 10:29:14;;;;;;;6.57;3.92;;;;;;;7.47;100.00;100833.09;4993555;28;20061;-64
2022/02/24 10:31:42;;;;;;;10.15;4.93;;;;;;;7.87;100.00;100877.72;4992301;28;20086;-64
2022/02/24 10:34:10;;;;;;;9.75;4.78;;;;;;;7.92;100.00;100834.69;4993119;28;20488;-64
2022/02/24 10:36:38;;;;;;;7.70;3.85;;;;;;;7.96;100.00;100876.88;4991991;28;20049;-63
2022/02/24 10:39:13;;;;;;;6.68;3.55;;;;;;;7.88;100.00;100864.22;4993370;28;20121;-62
2022/02/24 10:41:47;;;;;;;7.68;3.50;;;;;;;7.50;100.00;100797.69;4991883;28;20508;-63
2022/02/24 10:44:24;;;;;;;5.13;3.25;;;;;;;7.79;100.00;100856.66;4992916;28;20121;-63
2022/02/24 10:47:04;;;;;;;6.95;2.92;;;;;;;7.94;100.00;100857.47;4992897;28;20034;-64
2022/02/24 10:49:49;;;;;;;5.75;3.35;;;;;;;7.85;100.00;100866.75;4993159;28;20034;-63
2022/02/24 10:52:19;;;;;;;6.25;4.05;;;;;;;7.76;100.00;100800.97;4993198;28;20117;-63
2022/02/24 10:55:07;;;;;;;7.82;4.22;;;;;;;7.52;100.00;100806.13;4991486;28;20034;-63
2022/02/24 10:57:33;;;;;;;8.02;4.28;;;;;;;8.15;100.00;100845.56;4993011;28;20034;-63
2022/02/24 11:00:00;;;;;;;4.45;3.03;;;;;;;8.17;100.00;100841.34;4992971;28;20113;-63
2022/02/24 11:02:27;;;;;;;4.82;2.97;;;;;;;9.19;100.00;100829.69;4992917;28;20057;-65
2022/02/24 11:04:53;;;;;;;5.95;3.00;;;;;;;9.25;96.20;100742.56;4992716;28;20117;-64
2022/02/24 11:07:20;;;;;;;6.65;2.90;;;;;;;10.09;92.50;100855.00;4992997;28;20126;-63
2022/02/24 11:09:48;;;;;;;7.30;3.20;;;;;;;8.77;96.05;100738.78;4992769;28;20034;-63
2022/02/24 11:12:15;;;;;;;5.70;3.00;;;;;;;10.27;89.59;100852.25;4992764;28;20033;-63
2022/02/24 11:14:41;;;;;;;6.13;2.80;;;;;;;10.64;84.29;100856.00;4992129;28;20537;-63
2022/02/24 11:17:11;;;;;;;5.55;2.60;;;;;;;13.09;77.23;100841.97;4991466;28;20551;-63
2022/02/24 11:19:37;;;;;;;6.30;3.17;;;;;;;11.15;78.62;100791.56;4992325;28;20038;-63